sensor_id;sensor_type;location;lat;lon;timestamp;temperature;humidity
13174;DHT22;6652;48.802;9.190;2023-02-22T00:02:22;6.40;99.90
13174;DHT22;6652;48.802;9.190;2023-02-22T00:04:53;6.40;99.90
13174;DHT22;6652;48.802;9.190;2023-02-22T00:07:20;6.30;99.90
13174;DHT22;6652;48.802;9.190;2023-02-22T00:09:49;6.30;99.90
13174;DHT22;6652;48.802;9.190;2023-02-22T00:12:16;6.30;99.90
13174;DHT22;6652;48.802;9.190;2023-02-22T00:14:42;6.30;99.90
13174;DHT22;6652;48.802;9.190;2023-02-22T00:17:09;6.30;99.90
13174;DHT22;6652;48.802;9.190;2023-02-22T00:19:37;6.30;99.90
13174;DHT22;6652;48.802;9.190;2023-02-22T00:22:04;6.30;99.90
13174;DHT22;6652;48.802;9.190;2023-02-22T00:24:31;6.20;99.90
13174;DHT22;6652;48.802;9.190;2023-02-22T00:27:01;6.20;99.90
13174;DHT22;6652;48.802;9.190;2023-02-22T00:29:28;6.10;99.90
13174;DHT22;6652;48.802;9.190;2023-02-22T00:31:55;6.10;99.90
13174;DHT22;6652;48.802;9.190;2023-02-22T00:34:22;6.10;99.90
13174;DHT22;6652;48.802;9.190;2023-02-22T00:36:49;6.10;99.90
13174;DHT22;6652;48.802;9.190;2023-02-22T00:39:16;6.20;99.90
13174;DHT22;6652;48.802;9.190;2023-02-22T00:41:43;6.20;99.90
13174;DHT22;6652;48.802;9.190;2023-02-22T00:44:11;6.10;99.90
13174;DHT22;6652;48.802;9.190;2023-02-22T00:46:38;6.10;99.90
13174;DHT22;6652;48.802;9.190;2023-02-22T00:49:05;6.10;99.90
13174;DHT22;6652;48.802;9.190;2023-02-22T00:51:32;6.10;99.90
13174;DHT22;6652;48.802;9.190;2023-02-22T00:53:59;6.10;99.90
13174;DHT22;6652;48.802;9.190;2023-02-22T00:56:26;6.10;99.90
13174;DHT22;6652;48.802;9.190;2023-02-22T00:58:53;6.10;99.90
13174;DHT22;6652;48.802;9.190;2023-02-22T01:01:21;6.00;99.90
13174;DHT22;6652;48.802;9.190;2023-02-22T01:03:48;6.00;99.90
13174;DHT22;6652;48.802;9.190;2023-02-22T01:06:15;6.00;99.90
13174;DHT22;6652;48.802;9.190;2023-02-22T01:08:43;6.00;99.90
13174;DHT22;6652;48.802;9.190;2023-02-22T01:11:10;5.90;99.90
13174;DHT22;6652;48.802;9.190;2023-02-22T01:13:37;5.90;99.90
13174;DHT22;6652;48.802;9.190;2023-02-22T01:16:04;5.90;99.90
13174;DHT22;6652;48.802;9.190;2023-02-22T01:18:34;5.90;99.90
13174;DHT22;6652;48.802;9.190;2023-02-22T01:21:01;5.90;99.90
13174;DHT22;6652;48.802;9.190;2023-02-22T01:23:27;5.90;99.90
13174;DHT22;6652;48.802;9.190;2023-02-22T01:25:54;5.90;99.90
13174;DHT22;6652;48.802;9.190;2023-02-22T01:28:21;5.90;99.90
13174;DHT22;6652;48.802;9.190;2023-02-22T01:30:48;5.80;99.90
13174;DHT22;6652;48.802;9.190;2023-02-22T01:33:15;5.80;99.90
13174;DHT22;6652;48.802;9.190;2023-02-22T01:35:43;5.80;99.90
13174;DHT22;6652;48.802;9.190;2023-02-22T01:38:10;5.80;99.90
13174;DHT22;6652;48.802;9.190;2023-02-22T01:40:41;5.80;99.90
13174;DHT22;6652;48.802;9.190;2023-02-22T01:43:15;5.70;99.90
13174;DHT22;6652;48.802;9.190;2023-02-22T01:45:55;5.70;99.90
13174;DHT22;6652;48.802;9.190;2023-02-22T01:48:34;5.60;99.90
13174;DHT22;6652;48.802;9.190;2023-02-22T01:51:07;5.60;99.90
13174;DHT22;6652;48.802;9.190;2023-02-22T01:53:36;5.60;99.90
13174;DHT22;6652;48.802;9.190;2023-02-22T01:56:05;5.60;99.90
13174;DHT22;6652;48.802;9.190;2023-02-22T01:58:34;5.50;99.90
13174;DHT22;6652;48.802;9.190;2023-02-22T02:01:02;5.50;99.90
13174;DHT22;6652;48.802;9.190;2023-02-22T02:03:31;5.50;99.90
13174;DHT22;6652;48.802;9.190;2023-02-22T02:06:01;5.50;99.90
13174;DHT22;6652;48.802;9.190;2023-02-22T02:08:34;5.50;99.90
13174;DHT22;6652;48.802;9.190;2023-02-22T02:11:04;5.40;99.90
13174;DHT22;6652;48.802;9.190;2023-02-22T02:13:31;5.60;99.90
13174;DHT22;6652;48.802;9.190;2023-02-22T02:15:58;5.30;99.90
13174;DHT22;6652;48.802;9.190;2023-02-22T02:18:26;5.30;99.90
13174;DHT22;6652;48.802;9.190;2023-02-22T02:21:11;5.30;99.90
13174;DHT22;6652;48.802;9.190;2023-02-22T02:24:08;5.30;99.90
13174;DHT22;6652;48.802;9.190;2023-02-22T02:26:58;5.30;99.90
13174;DHT22;6652;48.802;9.190;2023-02-22T02:32:43;5.20;99.90
13174;DHT22;6652;48.802;9.190;2023-02-22T02:35:15;5.20;99.90
13174;DHT22;6652;48.802;9.190;2023-02-22T02:37:49;5.20;99.90
13174;DHT22;6652;48.802;9.190;2023-02-22T02:40:24;5.20;99.90
13174;DHT22;6652;48.802;9.190;2023-02-22T02:42:59;5.20;99.90
13174;DHT22;6652;48.802;9.190;2023-02-22T02:45:31;5.20;99.90
13174;DHT22;6652;48.802;9.190;2023-02-22T02:48:01;5.20;99.90
13174;DHT22;6652;48.802;9.190;2023-02-22T02:50:34;5.20;99.90
13174;DHT22;6652;48.802;9.190;2023-02-22T02:53:05;5.10;99.90
13174;DHT22;6652;48.802;9.190;2023-02-22T02:55:34;5.30;99.90
13174;DHT22;6652;48.802;9.190;2023-02-22T02:58:01;5.10;99.90
13174;DHT22;6652;48.802;9.190;2023-02-22T03:00:32;5.10;99.90
13174;DHT22;6652;48.802;9.190;2023-02-22T03:03:30;5.20;99.90
13174;DHT22;6652;48.802;9.190;2023-02-22T03:06:22;5.10;99.90
13174;DHT22;6652;48.802;9.190;2023-02-22T03:08:58;5.00;99.90
13174;DHT22;6652;48.802;9.190;2023-02-22T03:11:29;5.00;99.90
13174;DHT22;6652;48.802;9.190;2023-02-22T03:14:04;5.00;99.90
13174;DHT22;6652;48.802;9.190;2023-02-22T03:16:42;5.00;99.90
13174;DHT22;6652;48.802;9.190;2023-02-22T03:19:16;5.00;99.90
13174;DHT22;6652;48.802;9.190;2023-02-22T03:21:49;4.90;99.90
13174;DHT22;6652;48.802;9.190;2023-02-22T03:24:23;5.00;99.90
13174;DHT22;6652;48.802;9.190;2023-02-22T03:26:55;5.00;99.90
13174;DHT22;6652;48.802;9.190;2023-02-22T03:29:25;5.10;99.90
13174;DHT22;6652;48.802;9.190;2023-02-22T03:31:56;4.90;99.90
13174;DHT22;6652;48.802;9.190;2023-02-22T03:34:31;5.00;99.90
13174;DHT22;6652;48.802;9.190;2023-02-22T03:37:02;5.00;99.90
13174;DHT22;6652;48.802;9.190;2023-02-22T03:39:31;5.00;99.90
13174;DHT22;6652;48.802;9.190;2023-02-22T03:42:05;5.00;99.90
13174;DHT22;6652;48.802;9.190;2023-02-22T03:44:35;4.90;99.90
13174;DHT22;6652;48.802;9.190;2023-02-22T03:47:08;4.90;99.90
13174;DHT22;6652;48.802;9.190;2023-02-22T03:49:41;4.90;99.90
13174;DHT22;6652;48.802;9.190;2023-02-22T03:52:10;4.90;99.90
13174;DHT22;6652;48.802;9.190;2023-02-22T03:54:37;4.90;99.90
13174;DHT22;6652;48.802;9.190;2023-02-22T03:57:08;4.90;99.90
13174;DHT22;6652;48.802;9.190;2023-02-22T03:59:37;4.80;99.90
13174;DHT22;6652;48.802;9.190;2023-02-22T04:02:04;4.80;99.90
13174;DHT22;6652;48.802;9.190;2023-02-22T04:04:31;4.80;99.90
13174;DHT22;6652;48.802;9.190;2023-02-22T04:07:00;4.80;99.90
13174;DHT22;6652;48.802;9.190;2023-02-22T04:09:26;4.70;99.90
13174;DHT22;6652;48.802;9.190;2023-02-22T04:11:53;4.70;99.90
13174;DHT22;6652;48.802;9.190;2023-02-22T04:14:20;4.70;99.90
13174;DHT22;6652;48.802;9.190;2023-02-22T04:16:47;4.70;99.90
13174;DHT22;6652;48.802;9.190;2023-02-22T04:19:13;4.70;99.90
13174;DHT22;6652;48.802;9.190;2023-02-22T04:21:40;4.60;99.90
13174;DHT22;6652;48.802;9.190;2023-02-22T04:24:08;4.70;99.90
13174;DHT22;6652;48.802;9.190;2023-02-22T04:26:36;4.60;99.90
13174;DHT22;6652;48.802;9.190;2023-02-22T04:29:03;4.60;99.90
13174;DHT22;6652;48.802;9.190;2023-02-22T04:31:30;4.60;99.90
13174;DHT22;6652;48.802;9.190;2023-02-22T04:33:58;4.60;99.90
13174;DHT22;6652;48.802;9.190;2023-02-22T04:36:25;4.60;99.90
13174;DHT22;6652;48.802;9.190;2023-02-22T04:38:52;4.60;99.90
13174;DHT22;6652;48.802;9.190;2023-02-22T04:41:21;4.60;99.90
13174;DHT22;6652;48.802;9.190;2023-02-22T04:43:47;4.60;99.90
13174;DHT22;6652;48.802;9.190;2023-02-22T04:46:15;4.50;99.90
13174;DHT22;6652;48.802;9.190;2023-02-22T04:48:42;4.50;99.90
13174;DHT22;6652;48.802;9.190;2023-02-22T04:51:09;4.50;99.90
13174;DHT22;6652;48.802;9.190;2023-02-22T04:53:36;4.50;99.90
13174;DHT22;6652;48.802;9.190;2023-02-22T04:56:03;4.40;99.90
13174;DHT22;6652;48.802;9.190;2023-02-22T04:58:31;4.40;99.90
13174;DHT22;6652;48.802;9.190;2023-02-22T05:00:58;4.40;99.90
13174;DHT22;6652;48.802;9.190;2023-02-22T05:03:25;4.40;99.90
13174;DHT22;6652;48.802;9.190;2023-02-22T05:05:52;4.40;99.90
13174;DHT22;6652;48.802;9.190;2023-02-22T05:08:19;4.40;99.90
13174;DHT22;6652;48.802;9.190;2023-02-22T05:10:45;4.40;99.90
13174;DHT22;6652;48.802;9.190;2023-02-22T05:13:12;4.30;99.90
13174;DHT22;6652;48.802;9.190;2023-02-22T05:15:40;4.30;99.90
13174;DHT22;6652;48.802;9.190;2023-02-22T05:18:07;4.30;99.90
13174;DHT22;6652;48.802;9.190;2023-02-22T05:20:34;4.30;99.90
13174;DHT22;6652;48.802;9.190;2023-02-22T05:23:02;4.40;99.90
13174;DHT22;6652;48.802;9.190;2023-02-22T05:25:30;4.40;99.90
13174;DHT22;6652;48.802;9.190;2023-02-22T05:27:59;4.40;99.90
13174;DHT22;6652;48.802;9.190;2023-02-22T05:30:29;4.40;99.90
13174;DHT22;6652;48.802;9.190;2023-02-22T05:32:58;4.40;99.90
13174;DHT22;6652;48.802;9.190;2023-02-22T05:35:26;4.30;99.90
13174;DHT22;6652;48.802;9.190;2023-02-22T05:37:53;4.30;99.90
13174;DHT22;6652;48.802;9.190;2023-02-22T05:40:23;4.30;99.90
13174;DHT22;6652;48.802;9.190;2023-02-22T05:42:51;4.30;99.90
13174;DHT22;6652;48.802;9.190;2023-02-22T05:45:20;4.30;99.90
13174;DHT22;6652;48.802;9.190;2023-02-22T05:47:48;4.30;99.90
13174;DHT22;6652;48.802;9.190;2023-02-22T05:50:17;4.30;99.90
13174;DHT22;6652;48.802;9.190;2023-02-22T05:52:44;4.20;99.90
13174;DHT22;6652;48.802;9.190;2023-02-22T05:55:14;4.20;99.90
13174;DHT22;6652;48.802;9.190;2023-02-22T05:57:41;4.10;99.90
13174;DHT22;6652;48.802;9.190;2023-02-22T06:00:09;4.10;99.90
13174;DHT22;6652;48.802;9.190;2023-02-22T06:02:36;4.10;99.90
13174;DHT22;6652;48.802;9.190;2023-02-22T06:05:03;4.10;99.90
13174;DHT22;6652;48.802;9.190;2023-02-22T06:07:31;4.10;99.90
13174;DHT22;6652;48.802;9.190;2023-02-22T06:09:58;4.10;99.90
13174;DHT22;6652;48.802;9.190;2023-02-22T06:12:25;4.20;99.90
13174;DHT22;6652;48.802;9.190;2023-02-22T06:14:51;4.10;99.90
13174;DHT22;6652;48.802;9.190;2023-02-22T06:17:18;4.10;99.90
13174;DHT22;6652;48.802;9.190;2023-02-22T06:19:45;4.10;99.90
13174;DHT22;6652;48.802;9.190;2023-02-22T06:22:15;4.10;99.90
13174;DHT22;6652;48.802;9.190;2023-02-22T06:24:44;4.20;99.90
13174;DHT22;6652;48.802;9.190;2023-02-22T06:27:10;4.20;99.90
13174;DHT22;6652;48.802;9.190;2023-02-22T06:29:37;4.20;99.90
13174;DHT22;6652;48.802;9.190;2023-02-22T06:32:05;4.30;99.90
13174;DHT22;6652;48.802;9.190;2023-02-22T06:34:31;4.40;99.90
13174;DHT22;6652;48.802;9.190;2023-02-22T06:36:58;4.50;99.90
13174;DHT22;6652;48.802;9.190;2023-02-22T06:39:25;4.70;99.90
13174;DHT22;6652;48.802;9.190;2023-02-22T06:41:55;4.90;99.90
13174;DHT22;6652;48.802;9.190;2023-02-22T06:44:23;5.10;99.90
13174;DHT22;6652;48.802;9.190;2023-02-22T06:46:49;5.50;99.90
13174;DHT22;6652;48.802;9.190;2023-02-22T06:49:18;5.90;99.90
13174;DHT22;6652;48.802;9.190;2023-02-22T06:51:45;6.20;99.90
13174;DHT22;6652;48.802;9.190;2023-02-22T06:54:13;6.50;99.90
13174;DHT22;6652;48.802;9.190;2023-02-22T06:56:39;6.60;99.90
13174;DHT22;6652;48.802;9.190;2023-02-22T06:59:08;6.90;99.90
13174;DHT22;6652;48.802;9.190;2023-02-22T07:01:35;7.40;99.90
13174;DHT22;6652;48.802;9.190;2023-02-22T07:04:02;7.70;99.90
13174;DHT22;6652;48.802;9.190;2023-02-22T07:06:29;8.30;99.90
13174;DHT22;6652;48.802;9.190;2023-02-22T07:08:56;8.80;99.90
13174;DHT22;6652;48.802;9.190;2023-02-22T07:11:23;9.10;99.90
13174;DHT22;6652;48.802;9.190;2023-02-22T07:13:49;9.60;99.90
13174;DHT22;6652;48.802;9.190;2023-02-22T07:16:18;10.20;99.90
13174;DHT22;6652;48.802;9.190;2023-02-22T07:18:45;10.80;99.90
13174;DHT22;6652;48.802;9.190;2023-02-22T07:21:12;11.70;99.90
13174;DHT22;6652;48.802;9.190;2023-02-22T07:23:39;12.50;99.90
13174;DHT22;6652;48.802;9.190;2023-02-22T07:26:06;13.00;99.90
13174;DHT22;6652;48.802;9.190;2023-02-22T07:28:32;13.30;99.90
13174;DHT22;6652;48.802;9.190;2023-02-22T07:30:59;13.60;98.80
13174;DHT22;6652;48.802;9.190;2023-02-22T07:33:27;13.40;97.80
13174;DHT22;6652;48.802;9.190;2023-02-22T07:35:54;13.20;97.60
13174;DHT22;6652;48.802;9.190;2023-02-22T07:38:21;12.80;97.10
13174;DHT22;6652;48.802;9.190;2023-02-22T07:40:48;12.40;97.10
13174;DHT22;6652;48.802;9.190;2023-02-22T07:43:16;12.10;97.40
13174;DHT22;6652;48.802;9.190;2023-02-22T07:45:44;12.20;97.50
13174;DHT22;6652;48.802;9.190;2023-02-22T07:48:13;12.50;97.60
13174;DHT22;6652;48.802;9.190;2023-02-22T07:50:41;13.00;97.10
13174;DHT22;6652;48.802;9.190;2023-02-22T07:53:12;13.40;96.00
13174;DHT22;6652;48.802;9.190;2023-02-22T07:55:39;14.00;95.60
13174;DHT22;6652;48.802;9.190;2023-02-22T07:58:07;14.40;95.30
13174;DHT22;6652;48.802;9.190;2023-02-22T08:00:35;14.90;94.70
13174;DHT22;6652;48.802;9.190;2023-02-22T08:03:05;15.40;93.60
13174;DHT22;6652;48.802;9.190;2023-02-22T08:05:34;15.60;92.80
13174;DHT22;6652;48.802;9.190;2023-02-22T08:08:03;15.60;92.10
13174;DHT22;6652;48.802;9.190;2023-02-22T08:10:31;15.80;92.00
13174;DHT22;6652;48.802;9.190;2023-02-22T08:13:00;16.20;91.20
13174;DHT22;6652;48.802;9.190;2023-02-22T08:15:29;17.00;90.90
13174;DHT22;6652;48.802;9.190;2023-02-22T08:17:58;17.70;89.10
13174;DHT22;6652;48.802;9.190;2023-02-22T08:20:26;17.90;86.70
13174;DHT22;6652;48.802;9.190;2023-02-22T08:22:54;17.70;85.70
13174;DHT22;6652;48.802;9.190;2023-02-22T08:25:24;17.80;85.20
13174;DHT22;6652;48.802;9.190;2023-02-22T08:27:51;18.10;85.30
13174;DHT22;6652;48.802;9.190;2023-02-22T08:30:23;18.40;84.70
13174;DHT22;6652;48.802;9.190;2023-02-22T08:32:51;18.80;83.80
13174;DHT22;6652;48.802;9.190;2023-02-22T08:35:19;19.30;82.30
13174;DHT22;6652;48.802;9.190;2023-02-22T08:37:48;19.60;80.60
13174;DHT22;6652;48.802;9.190;2023-02-22T08:40:17;20.10;79.00
13174;DHT22;6652;48.802;9.190;2023-02-22T08:42:47;20.50;77.70
13174;DHT22;6652;48.802;9.190;2023-02-22T08:45:14;20.60;76.50
13174;DHT22;6652;48.802;9.190;2023-02-22T08:47:41;20.90;75.30
13174;DHT22;6652;48.802;9.190;2023-02-22T08:50:10;21.20;74.00
13174;DHT22;6652;48.802;9.190;2023-02-22T08:52:41;21.20;72.70
13174;DHT22;6652;48.802;9.190;2023-02-22T08:55:07;21.30;73.00
13174;DHT22;6652;48.802;9.190;2023-02-22T08:57:34;21.20;72.20
13174;DHT22;6652;48.802;9.190;2023-02-22T09:00:04;21.30;72.20
13174;DHT22;6652;48.802;9.190;2023-02-22T09:02:31;21.70;72.00
13174;DHT22;6652;48.802;9.190;2023-02-22T09:04:59;21.90;70.00
13174;DHT22;6652;48.802;9.190;2023-02-22T09:07:26;21.50;70.70
13174;DHT22;6652;48.802;9.190;2023-02-22T09:09:53;21.20;71.20
13174;DHT22;6652;48.802;9.190;2023-02-22T09:12:21;20.90;71.70
13174;DHT22;6652;48.802;9.190;2023-02-22T09:14:48;20.40;71.50
13174;DHT22;6652;48.802;9.190;2023-02-22T09:17:16;19.70;72.50
13174;DHT22;6652;48.802;9.190;2023-02-22T09:19:43;19.90;73.30
13174;DHT22;6652;48.802;9.190;2023-02-22T09:22:10;20.50;73.80
13174;DHT22;6652;48.802;9.190;2023-02-22T09:24:37;21.10;72.10
13174;DHT22;6652;48.802;9.190;2023-02-22T09:27:04;21.70;71.00
13174;DHT22;6652;48.802;9.190;2023-02-22T09:29:32;21.60;69.90
13174;DHT22;6652;48.802;9.190;2023-02-22T09:31:59;21.20;69.50
13174;DHT22;6652;48.802;9.190;2023-02-22T09:34:27;20.70;70.00
13174;DHT22;6652;48.802;9.190;2023-02-22T09:36:55;20.20;71.00
13174;DHT22;6652;48.802;9.190;2023-02-22T09:39:23;20.80;71.60
13174;DHT22;6652;48.802;9.190;2023-02-22T09:41:56;21.70;70.30
13174;DHT22;6652;48.802;9.190;2023-02-22T09:44:34;22.30;68.60
13174;DHT22;6652;48.802;9.190;2023-02-22T09:47:03;22.90;68.10
13174;DHT22;6652;48.802;9.190;2023-02-22T09:49:40;22.80;67.40
13174;DHT22;6652;48.802;9.190;2023-02-22T09:52:17;22.30;66.80
13174;DHT22;6652;48.802;9.190;2023-02-22T09:54:47;22.50;67.40
13174;DHT22;6652;48.802;9.190;2023-02-22T09:57:19;23.10;66.50
13174;DHT22;6652;48.802;9.190;2023-02-22T09:59:55;23.80;66.60
13174;DHT22;6652;48.802;9.190;2023-02-22T10:02:27;24.20;65.50
13174;DHT22;6652;48.802;9.190;2023-02-22T10:05:01;24.30;64.00
13174;DHT22;6652;48.802;9.190;2023-02-22T10:07:33;24.10;63.20
13174;DHT22;6652;48.802;9.190;2023-02-22T10:10:02;23.80;63.10
13174;DHT22;6652;48.802;9.190;2023-02-22T10:12:37;23.30;63.60
13174;DHT22;6652;48.802;9.190;2023-02-22T10:15:29;23.50;64.60
13174;DHT22;6652;48.802;9.190;2023-02-22T10:18:12;23.40;63.80
13174;DHT22;6652;48.802;9.190;2023-02-22T10:20:52;22.60;64.00
13174;DHT22;6652;48.802;9.190;2023-02-22T10:23:27;22.10;65.30
13174;DHT22;6652;48.802;9.190;2023-02-22T10:26:11;22.20;65.50
13174;DHT22;6652;48.802;9.190;2023-02-22T10:28:42;22.00;65.50
13174;DHT22;6652;48.802;9.190;2023-02-22T10:31:16;21.70;66.70
13174;DHT22;6652;48.802;9.190;2023-02-22T10:33:47;20.90;67.10
13174;DHT22;6652;48.802;9.190;2023-02-22T10:36:18;20.00;68.60
13174;DHT22;6652;48.802;9.190;2023-02-22T10:38:52;19.60;70.40
13174;DHT22;6652;48.802;9.190;2023-02-22T10:41:25;19.50;71.10
13174;DHT22;6652;48.802;9.190;2023-02-22T10:43:53;19.60;72.00
13174;DHT22;6652;48.802;9.190;2023-02-22T10:46:21;20.00;71.50
13174;DHT22;6652;48.802;9.190;2023-02-22T10:48:51;20.50;70.60
13174;DHT22;6652;48.802;9.190;2023-02-22T10:51:20;20.70;69.90
13174;DHT22;6652;48.802;9.190;2023-02-22T10:53:58;20.70;69.50
13174;DHT22;6652;48.802;9.190;2023-02-22T10:56:30;20.30;69.70
13174;DHT22;6652;48.802;9.190;2023-02-22T10:58:58;19.40;70.90
13174;DHT22;6652;48.802;9.190;2023-02-22T11:01:33;19.00;72.40
13174;DHT22;6652;48.802;9.190;2023-02-22T11:04:05;18.50;73.20
13174;DHT22;6652;48.802;9.190;2023-02-22T11:06:35;18.00;74.90
13174;DHT22;6652;48.802;9.190;2023-02-22T11:09:11;17.80;75.60
13174;DHT22;6652;48.802;9.190;2023-02-22T11:11:40;17.70;76.10
13174;DHT22;6652;48.802;9.190;2023-02-22T11:14:09;17.70;76.50
13174;DHT22;6652;48.802;9.190;2023-02-22T11:16:38;17.60;76.80
13174;DHT22;6652;48.802;9.190;2023-02-22T11:19:15;17.50;77.50
13174;DHT22;6652;48.802;9.190;2023-02-22T11:21:46;17.60;78.70
13174;DHT22;6652;48.802;9.190;2023-02-22T11:24:17;17.50;79.10
13174;DHT22;6652;48.802;9.190;2023-02-22T11:26:48;17.50;78.80
13174;DHT22;6652;48.802;9.190;2023-02-22T11:29:21;17.30;79.20
13174;DHT22;6652;48.802;9.190;2023-02-22T11:31:48;17.40;79.90
13174;DHT22;6652;48.802;9.190;2023-02-22T11:34:28;17.60;80.30
13174;DHT22;6652;48.802;9.190;2023-02-22T11:37:15;17.50;80.30
13174;DHT22;6652;48.802;9.190;2023-02-22T11:39:42;17.30;80.60
13174;DHT22;6652;48.802;9.190;2023-02-22T11:42:21;17.20;81.40
13174;DHT22;6652;48.802;9.190;2023-02-22T11:44:55;17.20;82.30
13174;DHT22;6652;48.802;9.190;2023-02-22T11:47:33;17.30;82.60
13174;DHT22;6652;48.802;9.190;2023-02-22T11:50:00;17.30;82.40
13174;DHT22;6652;48.802;9.190;2023-02-22T11:52:32;17.30;82.60
13174;DHT22;6652;48.802;9.190;2023-02-22T11:55:12;17.10;82.60
13174;DHT22;6652;48.802;9.190;2023-02-22T11:57:54;17.20;83.40
13174;DHT22;6652;48.802;9.190;2023-02-22T12:00:35;17.20;83.60
13174;DHT22;6652;48.802;9.190;2023-02-22T12:03:32;17.30;83.80
13174;DHT22;6652;48.802;9.190;2023-02-22T12:06:10;17.20;83.30
13174;DHT22;6652;48.802;9.190;2023-02-22T12:08:51;17.20;84.00
13174;DHT22;6652;48.802;9.190;2023-02-22T12:11:23;17.20;83.40
13174;DHT22;6652;48.802;9.190;2023-02-22T12:14:04;17.00;83.30
13174;DHT22;6652;48.802;9.190;2023-02-22T12:16:38;17.00;83.90
13174;DHT22;6652;48.802;9.190;2023-02-22T12:19:14;17.00;84.40
13174;DHT22;6652;48.802;9.190;2023-02-22T12:21:52;17.10;84.60
13174;DHT22;6652;48.802;9.190;2023-02-22T12:24:24;17.40;84.50
13174;DHT22;6652;48.802;9.190;2023-02-22T12:26:56;17.10;83.50
13174;DHT22;6652;48.802;9.190;2023-02-22T12:29:26;16.90;83.80
13174;DHT22;6652;48.802;9.190;2023-02-22T12:31:56;16.60;84.30
13174;DHT22;6652;48.802;9.190;2023-02-22T12:34:30;16.90;85.30
13174;DHT22;6652;48.802;9.190;2023-02-22T12:37:02;16.50;85.00
13174;DHT22;6652;48.802;9.190;2023-02-22T12:39:42;16.60;85.10
13174;DHT22;6652;48.802;9.190;2023-02-22T12:42:17;16.80;85.30
13174;DHT22;6652;48.802;9.190;2023-02-22T12:44:54;16.60;85.10
13174;DHT22;6652;48.802;9.190;2023-02-22T12:47:30;16.80;85.20
13174;DHT22;6652;48.802;9.190;2023-02-22T12:50:11;16.90;84.70
13174;DHT22;6652;48.802;9.190;2023-02-22T12:52:45;17.00;85.20
13174;DHT22;6652;48.802;9.190;2023-02-22T12:58:03;17.40;83.20
13174;DHT22;6652;48.802;9.190;2023-02-22T13:00:49;17.40;82.10
13174;DHT22;6652;48.802;9.190;2023-02-22T13:03:28;17.30;82.40
13174;DHT22;6652;48.802;9.190;2023-02-22T13:06:06;17.50;82.30
13174;DHT22;6652;48.802;9.190;2023-02-22T13:08:39;17.20;81.40
13174;DHT22;6652;48.802;9.190;2023-02-22T13:11:15;17.20;81.70
13174;DHT22;6652;48.802;9.190;2023-02-22T13:13:51;17.20;81.30
13174;DHT22;6652;48.802;9.190;2023-02-22T13:16:29;17.10;81.20
13174;DHT22;6652;48.802;9.190;2023-02-22T13:19:02;17.10;81.80
13174;DHT22;6652;48.802;9.190;2023-02-22T13:21:35;17.10;81.60
13174;DHT22;6652;48.802;9.190;2023-02-22T13:24:10;17.10;81.50
13174;DHT22;6652;48.802;9.190;2023-02-22T13:26:45;17.00;81.70
13174;DHT22;6652;48.802;9.190;2023-02-22T13:29:19;17.10;81.80
13174;DHT22;6652;48.802;9.190;2023-02-22T13:32:01;17.20;81.80
13174;DHT22;6652;48.802;9.190;2023-02-22T13:34:42;17.20;81.90
13174;DHT22;6652;48.802;9.190;2023-02-22T13:37:34;17.30;81.80
13174;DHT22;6652;48.802;9.190;2023-02-22T13:40:32;17.20;81.90
13174;DHT22;6652;48.802;9.190;2023-02-22T13:43:18;16.90;82.80
13174;DHT22;6652;48.802;9.190;2023-02-22T13:46:05;16.70;83.60
13174;DHT22;6652;48.802;9.190;2023-02-22T13:48:49;16.60;83.90
13174;DHT22;6652;48.802;9.190;2023-02-22T13:51:42;16.50;84.50
13174;DHT22;6652;48.802;9.190;2023-02-22T13:54:16;16.40;84.20
13174;DHT22;6652;48.802;9.190;2023-02-22T13:56:45;16.30;84.80
13174;DHT22;6652;48.802;9.190;2023-02-22T13:59:28;16.20;85.20
13174;DHT22;6652;48.802;9.190;2023-02-22T14:01:58;16.20;85.70
13174;DHT22;6652;48.802;9.190;2023-02-22T14:04:40;16.20;85.10
13174;DHT22;6652;48.802;9.190;2023-02-22T14:10:37;15.90;85.10
13174;DHT22;6652;48.802;9.190;2023-02-22T14:13:10;15.70;85.90
13174;DHT22;6652;48.802;9.190;2023-02-22T14:16:15;15.70;86.30
13174;DHT22;6652;48.802;9.190;2023-02-22T14:18:46;15.60;86.80
13174;DHT22;6652;48.802;9.190;2023-02-22T14:21:15;15.60;87.10
13174;DHT22;6652;48.802;9.190;2023-02-22T14:23:44;15.60;87.10
13174;DHT22;6652;48.802;9.190;2023-02-22T14:26:15;15.60;87.30
13174;DHT22;6652;48.802;9.190;2023-02-22T14:28:54;15.60;87.00
13174;DHT22;6652;48.802;9.190;2023-02-22T14:31:24;15.50;87.00
13174;DHT22;6652;48.802;9.190;2023-02-22T14:34:01;15.50;87.40
13174;DHT22;6652;48.802;9.190;2023-02-22T14:36:34;15.60;87.70
13174;DHT22;6652;48.802;9.190;2023-02-22T14:39:16;15.60;87.80
13174;DHT22;6652;48.802;9.190;2023-02-22T14:41:48;15.60;88.00
13174;DHT22;6652;48.802;9.190;2023-02-22T14:44:22;15.60;88.20
13174;DHT22;6652;48.802;9.190;2023-02-22T14:46:51;15.40;88.50
13174;DHT22;6652;48.802;9.190;2023-02-22T14:49:24;15.40;88.70
13174;DHT22;6652;48.802;9.190;2023-02-22T14:51:55;15.40;88.90
13174;DHT22;6652;48.802;9.190;2023-02-22T14:54:26;15.50;89.00
13174;DHT22;6652;48.802;9.190;2023-02-22T14:57:01;15.40;89.00
13174;DHT22;6652;48.802;9.190;2023-02-22T14:59:51;15.40;89.10
13174;DHT22;6652;48.802;9.190;2023-02-22T15:02:21;15.40;89.40
13174;DHT22;6652;48.802;9.190;2023-02-22T15:04:52;15.50;89.60
13174;DHT22;6652;48.802;9.190;2023-02-22T15:07:22;15.30;89.70
13174;DHT22;6652;48.802;9.190;2023-02-22T15:10:03;15.30;89.70
13174;DHT22;6652;48.802;9.190;2023-02-22T15:12:30;15.30;90.00
13174;DHT22;6652;48.802;9.190;2023-02-22T15:15:12;15.30;90.40
13174;DHT22;6652;48.802;9.190;2023-02-22T15:17:47;15.30;90.20
13174;DHT22;6652;48.802;9.190;2023-02-22T15:20:16;15.30;90.30
13174;DHT22;6652;48.802;9.190;2023-02-22T15:22:45;15.30;90.40
13174;DHT22;6652;48.802;9.190;2023-02-22T15:25:13;15.20;90.40
13174;DHT22;6652;48.802;9.190;2023-02-22T15:27:43;15.20;90.70
13174;DHT22;6652;48.802;9.190;2023-02-22T15:30:18;15.20;90.90
13174;DHT22;6652;48.802;9.190;2023-02-22T15:32:45;15.10;91.00
13174;DHT22;6652;48.802;9.190;2023-02-22T15:35:16;15.00;91.10
13174;DHT22;6652;48.802;9.190;2023-02-22T15:37:44;15.00;91.50
13174;DHT22;6652;48.802;9.190;2023-02-22T15:40:14;14.80;91.50
13174;DHT22;6652;48.802;9.190;2023-02-22T15:42:43;14.80;91.70
13174;DHT22;6652;48.802;9.190;2023-02-22T15:45:14;14.80;91.90
13174;DHT22;6652;48.802;9.190;2023-02-22T15:47:42;14.70;92.10
13174;DHT22;6652;48.802;9.190;2023-02-22T15:50:23;14.70;92.30
13174;DHT22;6652;48.802;9.190;2023-02-22T15:52:54;14.70;93.00
13174;DHT22;6652;48.802;9.190;2023-02-22T15:55:27;14.60;93.00
13174;DHT22;6652;48.802;9.190;2023-02-22T15:57:57;14.50;93.30
13174;DHT22;6652;48.802;9.190;2023-02-22T16:00:29;14.40;93.60
13174;DHT22;6652;48.802;9.190;2023-02-22T16:03:01;14.30;93.80
13174;DHT22;6652;48.802;9.190;2023-02-22T16:05:37;14.30;94.10
13174;DHT22;6652;48.802;9.190;2023-02-22T16:08:12;14.10;94.20
13174;DHT22;6652;48.802;9.190;2023-02-22T16:10:48;14.10;94.40
13174;DHT22;6652;48.802;9.190;2023-02-22T16:13:20;14.60;95.10
13174;DHT22;6652;48.802;9.190;2023-02-22T16:15:58;13.90;94.70
13174;DHT22;6652;48.802;9.190;2023-02-22T16:18:29;13.90;94.80
13174;DHT22;6652;48.802;9.190;2023-02-22T16:21:02;13.90;94.80
13174;DHT22;6652;48.802;9.190;2023-02-22T16:23:29;13.90;94.80
13174;DHT22;6652;48.802;9.190;2023-02-22T16:26:14;13.80;94.90
13174;DHT22;6652;48.802;9.190;2023-02-22T16:28:47;13.80;95.10